• Join FlightAware (Why Join?)
  • Login
  • US Flag 
03:50AM EST


 

Airport Tracker/Info


-or-


 

Live Flight TrackerFlight Track Log ✈ N874T ✈ 15-Jun-2012 ✈ KFDK - KHPN

Flight Track Log - Related Links

Times and Time Zones

All times are in EDT time to prevent confusion due to time zone crossing. See the N874T flight status page for this flight to view local times or setup timezone preferences in your user account.

Time Position Orientation Groundspeed Altitude Reporting Facility
EDT Latitude Longitude Course Direction KTS MPH feet Rate Location/Type
04:07PM 39.4333 -77.1833 57° Northeast 109 125 4,400  Level Potomac TRACON
04:08PM 39.4500 -77.1500 67° East 108 124 4,900 420 Climbing Potomac TRACON
04:09PM 39.4667 -77.1000 90° East 107 123 5,300 360 Climbing Potomac TRACON
04:10PM 39.4667 -77.0667 57° Northeast 108 124 5,700 360 Climbing Potomac TRACON
04:11PM 39.4833 -77.0333 90° East 117 135 6,100 360 Climbing Potomac TRACON
04:12PM 39.4833 -77.0000 57° Northeast 103 119 6,500 420 Climbing Potomac TRACON
04:13PM 39.5000 -76.9667 57° Northeast 106 122 7,000 420 Climbing Potomac TRACON
04:14PM 39.5167 -76.9333 67° East 106 122 7,400 240 Climbing Potomac TRACON
04:15PM 39.5333 -76.8833 67° East 120 138 7,500  Climbing Potomac TRACON
04:16PM 39.5500 -76.8333 57° Northeast 134 154 7,500  Level Potomac TRACON
04:17PM 39.5667 -76.8000 90° East 130 150 7,500  Level Potomac TRACON
04:18PM 39.5667 -76.7500 57° Northeast 136 157 7,500  Level Potomac TRACON
04:19PM 39.5833 -76.7167 67° East 134 154 7,500  Level Potomac TRACON
04:20PM 39.6000 -76.6667 67° East 133 153 7,500  Level Potomac TRACON
04:21PM 39.6167 -76.6167 57° Northeast 135 155 7,500  Level Potomac TRACON
04:22PM 39.6333 -76.5833 67° East 134 154 7,500  Level Potomac TRACON
04:23PM 39.6500 -76.5333 57° Northeast 135 155 7,500  Level Potomac TRACON
04:24PM 39.6667 -76.5000 67° East 136 157 7,500  Level Potomac TRACON
04:25PM 39.6833 -76.4500 67° East 133 153 7,500  Level Potomac TRACON
04:26PM 39.7000 -76.4000 50° Northeast 135 155 7,500  Level Potomac TRACON
04:27PM 39.7189 -76.3711 64° Northeast 134 154 7,500  Level FAA TRACON SMA TRACON (SMA)
04:27PM 39.7300 -76.3411 68° East 133 153 7,500  Level FAA TRACON SMA TRACON (SMA)
04:28PM 39.7383 -76.3136 68° East 133 153 7,500  Level FAA TRACON SMA TRACON (SMA)
04:29PM 39.7481 -76.2822 65° Northeast 134 154 7,500  Level FAA TRACON SMA TRACON (SMA)
04:29PM 39.7592 -76.2508 72° East 134 154 7,500  Level FAA TRACON SMA TRACON (SMA)
04:30PM 39.7661 -76.2233 68° East 132 152 7,500  Level FAA TRACON SMA TRACON (SMA)
04:31PM 39.7756 -76.1928 65° Northeast 133 153 7,500  Level FAA TRACON SMA TRACON (SMA)
04:31PM 39.7869 -76.1606 71° East 134 154 7,500  Level FAA TRACON SMA TRACON (SMA)
04:32PM 39.7939 -76.1339 67° East 133 153 7,500  Level FAA TRACON SMA TRACON (SMA)
04:33PM 39.8039 -76.1028 66° East 134 154 7,500  Level FAA TRACON SMA TRACON (SMA)
04:33PM 39.8147 -76.0717 63° Northeast 134 154 7,500  Level FAA TRACON SMA TRACON (SMA)
04:34PM 39.8250 -76.0458 57° Northeast 132 152 7,500  Level FAA TRACON SMA TRACON (SMA)
04:35PM 39.8394 -76.0167 59° Northeast 132 152 7,500  Level FAA TRACON SMA TRACON (SMA)
04:35PM 39.8525 -75.9886 59° Northeast 135 155 7,500  Level FAA TRACON SMA TRACON (SMA)
04:36PM 39.8639 -75.9636 58° Northeast 132 152 7,500  Level FAA TRACON SMA TRACON (SMA)
04:37PM 39.8772 -75.9356 64° Northeast 133 153 7,500  Level FAA TRACON SMA TRACON (SMA)
04:37PM 39.8889 -75.9050 73° East 134 154 7,500  Level FAA TRACON SMA TRACON (SMA)
04:38PM 39.8961 -75.8736 71° East 134 154 7,500  Level FAA TRACON SMA TRACON (SMA)
04:39PM 39.9039 -75.8442 78° East 134 154 7,500  Level FAA TRACON SMA TRACON (SMA)
04:39PM 39.9092 -75.8111 84° East 134 154 7,500  Level FAA TRACON SMA TRACON (SMA)
04:40PM 39.9119 -75.7772 92° East 138 159 7,500  Level FAA TRACON SMA TRACON (SMA)
04:41PM 39.9111 -75.7458 120° Southeast 137 158 7,500  Level FAA TRACON SMA TRACON (SMA)
04:41PM 39.8972 -75.7150 108° East 147 169 7,500  Level FAA TRACON SMA TRACON (SMA)
04:42PM 39.8900 -75.6858 91° East 141 162 7,500  Level FAA TRACON SMA TRACON (SMA)
04:43PM 39.8897 -75.6517 81° East 133 153 7,500  Level FAA TRACON SMA TRACON (SMA)
04:43PM 39.8936 -75.6189 78° East 131 151 7,500  Level FAA TRACON SMA TRACON (SMA)
04:44PM 39.8983 -75.5906 75° East 131 151 7,500  Level FAA TRACON SMA TRACON (SMA)
04:45PM 39.9047 -75.5586 72° East 130 150 7,500 60 Level FAA TRACON SMA TRACON (SMA)
04:45PM 39.9119 -75.5292 63° Northeast 128 147 7,600 300 Climbing FAA TRACON SMA TRACON (SMA)
04:46PM 39.9211 -75.5058 58° Northeast 118 136 7,900 420 Climbing FAA TRACON SMA TRACON (SMA)
04:47PM 39.9325 -75.4822 66° East 111 128 8,200 300 Climbing FAA TRACON SMA TRACON (SMA)
04:47PM 39.9414 -75.4561 61° Northeast 112 129 8,300 180 Climbing FAA TRACON SMA TRACON (SMA)
04:48PM 39.9506 -75.4342 62° Northeast 113 130 8,500 120 Climbing FAA TRACON SMA TRACON (SMA)
04:49PM 39.9614 -75.4081 62° Northeast 118 136 8,500  Level FAA TRACON SMA TRACON (SMA)
04:49PM 39.9728 -75.3797 62° Northeast 127 146 8,500  Level FAA TRACON SMA TRACON (SMA)
04:50PM 39.9833 -75.3542 62° Northeast 130 150 8,500  Level FAA TRACON SMA TRACON (SMA)
04:51PM 39.9950 -75.3256 61° Northeast 129 148 8,500  Level FAA TRACON SMA TRACON (SMA)
04:51PM 40.0072 -75.2967 62° Northeast 130 150 8,500  Level FAA TRACON SMA TRACON (SMA)
04:52PM 40.0175 -75.2711 62° Northeast 130 150 8,500  Level FAA TRACON SMA TRACON (SMA)
04:53PM 40.0292 -75.2422 60° Northeast 130 150 8,500  Level FAA TRACON SMA TRACON (SMA)
04:53PM 40.0408 -75.2161 62° Northeast 131 151 8,500  Level FAA TRACON SMA TRACON (SMA)
04:54PM 40.0525 -75.1875 60° Northeast 128 147 8,500  Level FAA TRACON SMA TRACON (SMA)
04:55PM 40.0642 -75.1611 63° Northeast 128 147 8,500  Level FAA TRACON SMA TRACON (SMA)
04:55PM 40.0747 -75.1339 62° Northeast 129 148 8,500  Level FAA TRACON SMA TRACON (SMA)
04:56PM 40.0867 -75.1050 62° Northeast 129 148 8,500  Level FAA TRACON SMA TRACON (SMA)
04:57PM 40.0978 -75.0775 61° Northeast 127 146 8,500  Level FAA TRACON SMA TRACON (SMA)
04:57PM 40.1089 -75.0517 62° Northeast 128 147 8,500 -180 Level FAA TRACON SMA TRACON (SMA)
04:58PM 40.1208 -75.0222 63° Northeast 136 157 8,300 -420 Descending FAA TRACON SMA TRACON (SMA)
04:59PM 40.1336 -74.9897 62° Northeast 144 166 8,000 -480 Descending FAA TRACON SMA TRACON (SMA)
04:59PM 40.1469 -74.9575 62° Northeast 146 168 7,700 -480 Descending FAA TRACON SMA TRACON (SMA)
05:00PM 40.1589 -74.9283 61° Northeast 148 170 7,400 -420 Descending FAA TRACON SMA TRACON (SMA)
05:01PM 40.1725 -74.8958 62° Northeast 147 169 7,200 -420 Descending FAA TRACON SMA TRACON (SMA)
05:01PM 40.1858 -74.8633 60° Northeast 148 170 6,900 -480 Descending FAA TRACON SMA TRACON (SMA)
05:02PM 40.1983 -74.8353 63° Northeast 148 170 6,600 -420 Descending FAA TRACON SMA TRACON (SMA)
05:03PM 40.2114 -74.8014 62° Northeast 148 170 6,400 -420 Descending FAA TRACON SMA TRACON (SMA)
05:03PM 40.2253 -74.7678 61° Northeast 149 171 6,100 -420 Descending FAA TRACON SMA TRACON (SMA)
05:04PM 40.2378 -74.7378 62° Northeast 152 175 5,900 -420 Descending FAA TRACON SMA TRACON (SMA)
05:05PM 40.2517 -74.7033 61° Northeast 154 177 5,600 -480 Descending FAA TRACON SMA TRACON (SMA)
05:06PM 40.2658 -74.6692 62° Northeast 155 178 5,300 -420 Descending FAA TRACON SMA TRACON (SMA)
05:06PM 40.2783 -74.6383 62° Northeast 155 178 5,100 -420 Descending FAA TRACON SMA TRACON (SMA)
05:07PM 40.2922 -74.6042 62° Northeast 153 176 4,800 -480 Descending FAA TRACON SMA TRACON (SMA)
05:08PM 40.3122 -74.5539 61° Northeast 156 180 4,300 -600 Descending FAA TRACON SMA TRACON (SMA)
05:08PM 40.3256 -74.5217 63° Northeast 161 185 3,800 -720 Descending FAA TRACON SMA TRACON (SMA)
05:09PM 40.3400 -74.4844 61° Northeast 166 191 3,400 -720 Descending FAA TRACON SMA TRACON (SMA)
05:10PM 40.3550 -74.4489 61° Northeast 162 186 2,900 -720 Descending FAA TRACON SMA TRACON (SMA)
05:10PM 40.3700 -74.4133 54° Northeast 162 186 2,500 -360 Descending FAA TRACON SMA TRACON (SMA)
05:11PM 40.3853 -74.3858 52° Northeast 150 173 2,500 -60 Level FAA TRACON SMA TRACON (SMA)
05:12PM 40.4167 -74.3333 52° Northeast 147 169 2,400 -240 Descending New York TRACON
05:14PM 40.4667 -74.2500 52° Northeast 183 211 1,800 -180 Descending New York TRACON
05:16PM 40.5167 -74.1667 37° Northeast 139 160 1,900 60 Climbing New York TRACON
05:17PM 40.5500 -74.1333 66° East 136 157 2,000  Climbing New York TRACON
05:18PM 40.5667 -74.0833 37° Northeast 142 163 2,000  Level New York TRACON
05:19PM 40.6000 -74.0500 21° North 147 169 2,000  Level New York TRACON
05:20PM 40.6333 -74.0333 360° North 152 175 2,000  Level New York TRACON
05:21PM 40.6833 -74.0333 21° North 145 167 2,000  Level New York TRACON
05:22PM 40.7167 -74.0167 360° North 150 173 2,000  Level New York TRACON
05:23PM 40.7500 -74.0167 27° Northeast 150 173 2,000  Level New York TRACON
05:24PM 40.8000 -73.9833 37° Northeast 149 171 2,000  Level New York TRACON
05:25PM 40.8333 -73.9500 21° North 141 162 2,000  Level New York TRACON
05:26PM 40.8667 -73.9333 21° North 151 174 2,000  Level New York TRACON
05:27PM 40.9000 -73.9167 14° North 149 171 2,000  Level New York TRACON
05:28PM 40.9500 -73.9000 21° North 155 178 2,000  Level New York TRACON
05:29PM 40.9833 -73.8833 360° North 156 180 2,000  Level New York TRACON
05:30PM 41.0333 -73.8833 360° North 153 176 2,000  Level New York TRACON